createdAt,value
2023-01-09T00:00:46.017Z,78.93
2023-01-09T00:03:12.966Z,78.88
2023-01-09T00:05:39.887Z,79.08
2023-01-09T00:08:06.618Z,78.72
2023-01-09T00:10:33.566Z,77.62
2023-01-09T00:13:00.281Z,78.37
2023-01-09T00:15:27.009Z,78.65
2023-01-09T00:17:53.679Z,78.37
2023-01-09T00:20:20.468Z,78.12
2023-01-09T00:22:47.151Z,78.18
2023-01-09T00:25:13.877Z,78.27
2023-01-09T00:27:40.572Z,77.94
2023-01-09T00:30:08.570Z,77.88
2023-01-09T00:32:35.242Z,77.71
2023-01-09T00:35:02.384Z,77.21
2023-01-09T00:37:29.051Z,77.29
2023-01-09T00:39:55.732Z,77.38
2023-01-09T00:42:25.236Z,77.04
2023-01-09T00:44:54.686Z,76.90
2023-01-09T00:47:25.735Z,76.96
2023-01-09T00:49:53.358Z,77.28
2023-01-09T00:52:20.343Z,76.89
2023-01-09T00:54:47.490Z,77.44
2023-01-09T00:57:14.756Z,77.67
2023-01-09T00:59:42.886Z,77.58
2023-01-09T01:02:09.953Z,77.19
2023-01-09T01:04:55.535Z,77.23
2023-01-09T01:07:41.244Z,77.66
2023-01-09T01:10:20.311Z,77.91
2023-01-09T01:12:48.459Z,78.31
2023-01-09T01:15:15.965Z,78.08
2023-01-09T01:17:43.132Z,77.96
2023-01-09T01:20:14.399Z,77.61
2023-01-09T01:22:42.669Z,77.66
2023-01-09T01:25:10.153Z,77.61
2023-01-09T01:27:36.976Z,77.61
2023-01-09T01:30:04.502Z,77.34
2023-01-09T01:32:31.287Z,76.81
2023-01-09T01:34:58.009Z,76.85
2023-01-09T01:37:24.826Z,76.79
2023-01-09T01:39:52.153Z,76.58
2023-01-09T01:42:18.976Z,76.49
2023-01-09T01:45:10.984Z,76.57
2023-01-09T01:47:58.647Z,77.24
2023-01-09T01:50:31.637Z,76.87
2023-01-09T01:53:09.678Z,76.94
2023-01-09T01:55:40.691Z,76.91
2023-01-09T01:58:10.653Z,77.02
2023-01-09T02:00:40.887Z,76.82
2023-01-09T02:03:08.263Z,76.44
2023-01-09T02:05:36.746Z,76.18
2023-01-09T02:08:03.932Z,76.13
2023-01-09T02:10:30.943Z,75.76
2023-01-09T02:12:57.812Z,76.27
2023-01-09T02:15:24.780Z,76.06
2023-01-09T02:17:57.880Z,76.24
2023-01-09T02:20:32.790Z,76.27
2023-01-09T02:23:18.388Z,75.87
2023-01-09T02:26:03.895Z,76.10
2023-01-09T02:28:30.454Z,76.01
2023-01-09T02:31:14.334Z,76.31
2023-01-09T02:33:55.182Z,76.74
2023-01-09T02:36:24.816Z,76.93
2023-01-09T02:39:02.165Z,76.91
2023-01-09T02:41:46.850Z,77.34
2023-01-09T02:44:16.860Z,77.69
2023-01-09T02:46:43.540Z,78.27
2023-01-09T02:49:10.691Z,77.98
2023-01-09T02:51:51.233Z,79.22
2023-01-09T02:54:27.729Z,78.71
2023-01-09T02:57:05.443Z,78.54
2023-01-09T02:59:52.041Z,79.00
2023-01-09T03:02:39.371Z,79.07
2023-01-09T03:05:25.775Z,78.75
2023-01-09T03:07:58.967Z,79.15
2023-01-09T03:10:40.089Z,78.78
2023-01-09T03:13:11.228Z,79.08
2023-01-09T03:15:40.664Z,80.21
2023-01-09T03:18:09.137Z,79.37
2023-01-09T03:20:36.362Z,79.89
2023-01-09T03:23:05.147Z,79.81
2023-01-09T03:25:33.022Z,79.68
2023-01-09T03:28:02.209Z,79.25
2023-01-09T03:30:30.855Z,79.58
2023-01-09T03:32:57.570Z,78.96
2023-01-09T03:35:24.801Z,79.24
2023-01-09T03:37:51.935Z,79.14
2023-01-09T03:40:19.978Z,79.41
2023-01-09T03:42:46.985Z,79.44
2023-01-09T03:45:13.812Z,79.38
2023-01-09T03:47:40.639Z,79.21
2023-01-09T03:50:08.096Z,79.15
2023-01-09T03:52:36.194Z,79.07
2023-01-09T03:55:03.148Z,78.92
2023-01-09T03:57:29.861Z,78.91
2023-01-09T03:59:56.558Z,78.64
2023-01-09T04:02:23.343Z,78.19
2023-01-09T04:04:49.990Z,78.17
2023-01-09T04:07:16.733Z,78.53
2023-01-09T04:09:43.425Z,78.49
2023-01-09T04:12:10.099Z,78.20
2023-01-09T04:14:36.747Z,78.03
2023-01-09T04:17:03.541Z,78.15
2023-01-09T04:19:30.268Z,78.53
2023-01-09T04:21:57.069Z,78.42
2023-01-09T04:24:23.769Z,78.15
2023-01-09T04:26:50.609Z,78.42
2023-01-09T04:29:17.372Z,78.81
2023-01-09T04:31:44.174Z,77.89
2023-01-09T04:34:11.028Z,78.96
2023-01-09T04:36:37.826Z,78.75
2023-01-09T04:39:04.719Z,79.71
2023-01-09T04:41:49.588Z,80.28
2023-01-09T04:44:21.939Z,79.69
2023-01-09T04:46:48.998Z,79.82
2023-01-09T04:49:15.961Z,79.75
2023-01-09T04:51:42.725Z,80.26
2023-01-09T04:54:09.446Z,80.07
2023-01-09T04:56:36.942Z,79.88
2023-01-09T04:59:04.816Z,80.31
2023-01-09T05:01:31.837Z,80.23
2023-01-09T05:03:58.686Z,80.41
2023-01-09T05:06:25.737Z,80.83
2023-01-09T05:08:52.590Z,81.32
2023-01-09T05:11:19.460Z,81.04
2023-01-09T05:13:46.176Z,81.42
2023-01-09T05:16:12.942Z,81.82
2023-01-09T05:18:39.742Z,81.55
2023-01-09T05:21:06.442Z,81.67
2023-01-09T05:23:33.215Z,81.89
2023-01-09T05:25:59.952Z,82.38
2023-01-09T05:28:26.709Z,82.51
2023-01-09T05:30:53.595Z,82.17
2023-01-09T05:33:20.351Z,82.59
2023-01-09T05:35:47.080Z,83.87
2023-01-09T05:38:13.800Z,83.71
2023-01-09T05:40:40.790Z,84.10
2023-01-09T05:43:07.914Z,83.78
2023-01-09T05:45:35.260Z,83.66
2023-01-09T05:48:02.073Z,84.10
2023-01-09T05:50:29.213Z,83.98
2023-01-09T05:52:56.057Z,84.61
2023-01-09T05:55:22.768Z,85.58
2023-01-09T05:57:49.492Z,85.04
2023-01-09T06:00:16.913Z,85.65
2023-01-09T06:02:43.785Z,86.82
2023-01-09T06:05:11.768Z,87.40
2023-01-09T06:07:40.733Z,87.05
2023-01-09T06:10:12.458Z,86.83
2023-01-09T06:12:39.460Z,86.27
2023-01-09T06:15:08.898Z,86.45
2023-01-09T06:17:35.793Z,85.88
2023-01-09T06:20:02.557Z,85.52
2023-01-09T06:22:29.242Z,85.83
2023-01-09T06:24:55.917Z,85.32
2023-01-09T06:27:27.234Z,85.38
2023-01-09T06:29:53.983Z,85.75
2023-01-09T06:32:20.746Z,85.73
2023-01-09T06:34:47.476Z,85.43
2023-01-09T06:37:14.474Z,85.38
2023-01-09T06:39:41.247Z,85.39
2023-01-09T06:42:07.922Z,85.93
2023-01-09T06:44:36.779Z,85.74
2023-01-09T06:47:04.411Z,86.74
2023-01-09T06:49:31.590Z,86.14
2023-01-09T06:51:58.569Z,85.53
2023-01-09T06:54:27.400Z,85.53
2023-01-09T06:56:55.409Z,85.75
2023-01-09T06:59:22.170Z,85.35
2023-01-09T07:01:49.059Z,85.20
2023-01-09T07:04:17.529Z,85.54
2023-01-09T07:06:47.827Z,85.02
2023-01-09T07:09:14.540Z,84.51
2023-01-09T07:11:41.551Z,85.38
2023-01-09T07:14:08.305Z,85.54
2023-01-09T07:16:35.050Z,85.65
2023-01-09T07:19:01.830Z,85.94
2023-01-09T07:21:28.561Z,85.25
2023-01-09T07:23:55.546Z,85.34
2023-01-09T07:26:22.326Z,85.50
2023-01-09T07:28:49.155Z,85.54
2023-01-09T07:31:15.945Z,84.93
2023-01-09T07:33:42.699Z,85.32
2023-01-09T07:36:09.791Z,85.62
2023-01-09T07:38:37.589Z,86.40
2023-01-09T07:41:04.395Z,86.25
2023-01-09T07:43:31.145Z,86.27
2023-01-09T07:45:57.896Z,86.32
2023-01-09T07:48:24.684Z,85.96
2023-01-09T07:50:51.420Z,86.06
2023-01-09T07:53:18.204Z,85.96
2023-01-09T07:55:44.984Z,84.81
2023-01-09T07:58:11.721Z,85.29
2023-01-09T08:00:38.472Z,85.77
2023-01-09T08:03:05.327Z,86.23
2023-01-09T08:05:32.122Z,85.88
2023-01-09T08:07:59.009Z,85.43
2023-01-09T08:10:25.815Z,84.56
2023-01-09T08:12:52.511Z,84.98
2023-01-09T08:15:19.244Z,85.22
2023-01-09T08:17:46.654Z,86.20
2023-01-09T08:20:14.844Z,86.40
2023-01-09T08:22:42.747Z,85.41
2023-01-09T08:25:12.241Z,85.99
2023-01-09T08:27:39.761Z,85.58
2023-01-09T08:30:07.048Z,85.71
2023-01-09T08:32:33.837Z,85.42
2023-01-09T08:35:00.595Z,86.13
2023-01-09T08:37:27.342Z,85.34
2023-01-09T08:39:54.358Z,85.72
2023-01-09T08:42:40.411Z,85.08
2023-01-09T08:45:28.910Z,86.03
2023-01-09T08:47:56.268Z,85.24
2023-01-09T08:50:23.205Z,85.06
2023-01-09T08:52:50.106Z,84.21
2023-01-09T08:55:16.931Z,84.69
2023-01-09T08:57:54.455Z,83.95
2023-01-09T09:00:23.261Z,84.62
2023-01-09T09:02:54.530Z,84.54
2023-01-09T09:05:22.181Z,85.43
2023-01-09T09:07:50.165Z,85.91
2023-01-09T09:10:17.830Z,86.25
2023-01-09T09:12:44.717Z,86.39
2023-01-09T09:15:23.986Z,86.87
2023-01-09T09:17:55.242Z,87.16
2023-01-09T09:20:23.500Z,86.56
2023-01-09T09:22:50.633Z,86.20
2023-01-09T09:25:18.239Z,86.23
2023-01-09T09:27:45.122Z,86.29
2023-01-09T09:30:13.415Z,85.98
2023-01-09T09:32:40.723Z,86.00
2023-01-09T09:35:08.162Z,85.31
2023-01-09T09:37:35.324Z,85.12
2023-01-09T09:40:13.358Z,85.91
2023-01-09T09:44:00.019Z,85.75
2023-01-09T09:46:41.867Z,86.21
2023-01-09T09:49:28.947Z,84.93
2023-01-09T09:52:26.350Z,84.92
2023-01-09T09:54:53.435Z,84.93
2023-01-09T09:57:24.367Z,84.90
2023-01-09T09:59:52.067Z,85.22
2023-01-09T10:02:30.687Z,85.13
2023-01-09T10:05:02.007Z,84.94
2023-01-09T10:07:35.499Z,84.24
2023-01-09T10:10:05.854Z,84.68
2023-01-09T10:12:34.590Z,85.48
2023-01-09T10:15:04.233Z,84.86
2023-01-09T10:17:49.138Z,84.88
2023-01-09T10:20:25.369Z,84.62
2023-01-09T10:23:02.967Z,85.39
2023-01-09T10:25:37.037Z,85.21
2023-01-09T10:28:08.489Z,84.52
2023-01-09T10:30:44.408Z,84.58
2023-01-09T10:33:24.493Z,84.73
2023-01-09T10:36:06.188Z,85.08
2023-01-09T10:38:36.343Z,85.06
2023-01-09T10:41:08.121Z,86.00
2023-01-09T10:43:49.677Z,85.99
2023-01-09T10:46:23.459Z,84.87
2023-01-09T10:48:54.267Z,84.72
2023-01-09T10:51:24.458Z,85.54
2023-01-09T10:53:55.336Z,86.09
2023-01-09T10:56:30.999Z,85.68
2023-01-09T10:58:58.056Z,85.28
2023-01-09T11:01:29.303Z,85.04
2023-01-09T11:03:59.239Z,84.85
2023-01-09T11:06:37.001Z,84.38
2023-01-09T11:09:05.237Z,84.52
2023-01-09T11:11:35.226Z,85.45
2023-01-09T11:14:08.482Z,85.55
2023-01-09T11:16:35.381Z,85.36
2023-01-09T11:19:02.194Z,83.78
2023-01-09T11:21:39.613Z,83.27
2023-01-09T11:24:21.646Z,83.80
2023-01-09T11:26:50.843Z,83.77
2023-01-09T11:29:24.480Z,83.42
2023-01-09T11:31:58.656Z,83.17
2023-01-09T11:34:36.143Z,83.33
2023-01-09T11:37:34.246Z,83.04
2023-01-09T11:40:01.579Z,82.75
2023-01-09T11:42:55.518Z,83.58
2023-01-09T11:45:29.177Z,82.98
2023-01-09T11:47:55.949Z,83.58
2023-01-09T11:50:28.119Z,82.67
2023-01-09T11:53:19.974Z,82.66
2023-01-09T11:55:49.787Z,83.11
2023-01-09T11:58:18.604Z,82.64
2023-01-09T12:00:59.113Z,82.47
2023-01-09T12:03:32.120Z,80.94
2023-01-09T12:06:35.358Z,81.77
2023-01-09T12:09:29.467Z,81.28
2023-01-09T12:12:29.335Z,79.19
2023-01-09T12:15:25.098Z,79.72
2023-01-09T12:18:10.781Z,79.18
2023-01-09T12:21:02.420Z,77.44
2023-01-09T12:23:49.377Z,74.18
2023-01-09T12:26:17.436Z,75.51
2023-01-09T12:28:53.040Z,76.37
2023-01-09T12:31:48.315Z,76.17
2023-01-09T12:34:48.363Z,74.79
2023-01-09T12:37:37.436Z,76.13
2023-01-09T12:40:16.471Z,76.64
2023-01-09T12:42:54.263Z,76.96
2023-01-09T12:45:47.731Z,77.13
2023-01-09T12:48:28.291Z,76.69
2023-01-09T12:51:00.051Z,76.59
2023-01-09T12:54:01.489Z,76.16
2023-01-09T12:56:35.103Z,76.31
2023-01-09T12:59:21.452Z,76.80
2023-01-09T13:01:50.111Z,76.32
2023-01-09T13:04:24.228Z,77.06
2023-01-09T13:06:54.712Z,77.91
2023-01-09T13:09:25.711Z,78.06
2023-01-09T13:12:03.616Z,77.16
2023-01-09T13:14:52.263Z,75.80
2023-01-09T13:17:23.807Z,74.40
2023-01-09T13:19:50.976Z,73.81
2023-01-09T13:22:18.321Z,74.58
2023-01-09T13:24:58.347Z,75.18
2023-01-09T13:27:27.162Z,76.33
2023-01-09T13:30:04.264Z,76.53
2023-01-09T13:32:42.331Z,75.42
2023-01-09T13:35:15.843Z,75.58
2023-01-09T13:37:43.202Z,73.70
2023-01-09T13:40:26.973Z,73.26
2023-01-09T13:43:03.436Z,74.11
2023-01-09T13:45:35.203Z,72.12
2023-01-09T13:48:12.065Z,73.23
2023-01-09T13:50:39.639Z,74.11
2023-01-09T13:53:18.605Z,74.75
2023-01-09T13:55:58.579Z,74.31
2023-01-09T13:58:38.298Z,73.52
2023-01-09T14:01:25.043Z,73.79
2023-01-09T14:04:35.979Z,74.73
2023-01-09T14:07:15.592Z,75.20
2023-01-09T14:09:48.221Z,75.40
2023-01-09T14:12:15.845Z,75.91
2023-01-09T14:14:45.463Z,76.25
2023-01-09T14:17:17.229Z,76.52
2023-01-09T14:19:44.133Z,76.52
2023-01-09T14:22:56.101Z,76.54
2023-01-09T14:25:25.894Z,76.98
2023-01-09T14:27:55.745Z,76.81
2023-01-09T14:30:53.498Z,77.22
2023-01-09T14:33:20.348Z,77.05
2023-01-09T14:36:13.339Z,77.56
2023-01-09T14:39:00.290Z,77.74
2023-01-09T14:41:51.864Z,77.80
2023-01-09T14:44:28.938Z,77.95
2023-01-09T14:47:00.050Z,77.43
2023-01-09T14:49:40.829Z,76.37
2023-01-09T14:52:22.430Z,76.71
2023-01-09T14:54:50.066Z,76.97
2023-01-09T14:57:30.820Z,76.72
2023-01-09T14:59:59.282Z,76.61
2023-01-09T15:02:29.151Z,76.61
2023-01-09T15:04:57.503Z,76.57
2023-01-09T15:07:31.021Z,76.71
2023-01-09T15:10:01.288Z,76.64
2023-01-09T15:12:28.494Z,76.66
2023-01-09T15:14:58.279Z,77.05
2023-01-09T15:17:31.020Z,76.93
2023-01-09T15:19:59.923Z,77.20
2023-01-09T15:22:34.812Z,77.25
2023-01-09T15:25:39.938Z,77.46
2023-01-09T15:28:22.186Z,77.43
2023-01-09T15:30:54.521Z,77.69
2023-01-09T15:33:21.557Z,77.81
2023-01-09T15:35:50.194Z,77.93
2023-01-09T15:38:21.388Z,77.88
2023-01-09T15:41:05.003Z,77.21
2023-01-09T15:43:31.897Z,76.21
2023-01-09T15:45:59.359Z,76.91
2023-01-09T15:48:33.145Z,76.83
2023-01-09T15:51:10.599Z,76.81
2023-01-09T15:53:37.687Z,76.95
2023-01-09T15:56:20.372Z,76.45
2023-01-09T15:58:51.443Z,72.17
2023-01-09T16:01:35.339Z,73.20
2023-01-09T16:04:08.842Z,73.01
2023-01-09T16:06:38.163Z,73.07
2023-01-09T16:09:05.587Z,72.64
2023-01-09T16:11:34.379Z,72.07
2023-01-09T16:14:14.285Z,73.83
2023-01-09T16:16:42.966Z,73.53
2023-01-09T16:19:29.851Z,73.64
2023-01-09T16:21:58.323Z,73.95
2023-01-09T16:24:48.597Z,74.21
2023-01-09T16:27:32.317Z,74.14
2023-01-09T16:30:07.082Z,74.10
2023-01-09T16:32:36.126Z,74.42
2023-01-09T16:35:08.160Z,74.36
2023-01-09T16:37:34.966Z,74.63
2023-01-09T16:40:24.610Z,74.86
2023-01-09T16:43:01.401Z,75.37
2023-01-09T16:45:31.441Z,75.23
2023-01-09T16:47:58.402Z,75.28
2023-01-09T16:50:26.463Z,75.75
2023-01-09T16:52:56.964Z,75.92
2023-01-09T16:55:23.788Z,76.23
2023-01-09T16:57:50.788Z,76.27
2023-01-09T17:00:18.952Z,76.44
2023-01-09T17:02:46.222Z,76.50
2023-01-09T17:05:13.270Z,76.53
2023-01-09T17:07:40.215Z,76.67
2023-01-09T17:10:10.746Z,76.59
2023-01-09T17:12:38.682Z,76.42
2023-01-09T17:15:05.905Z,76.54
2023-01-09T17:17:32.661Z,76.62
2023-01-09T17:19:59.505Z,76.46
2023-01-09T17:22:26.248Z,76.69
2023-01-09T17:25:11.600Z,76.41
2023-01-09T17:27:57.179Z,76.51
2023-01-09T17:30:24.016Z,76.32
2023-01-09T17:32:51.014Z,76.43
2023-01-09T17:35:17.964Z,76.84
2023-01-09T17:37:44.927Z,76.95
2023-01-09T17:40:23.555Z,76.89
2023-01-09T17:42:50.526Z,76.55
2023-01-09T17:45:17.370Z,76.78
2023-01-09T17:47:45.403Z,76.53
2023-01-09T17:50:19.226Z,76.33
2023-01-09T17:52:47.770Z,76.96
2023-01-09T17:55:15.020Z,76.93
2023-01-09T17:57:44.823Z,77.25
2023-01-09T18:00:36.775Z,77.13
2023-01-09T18:03:05.978Z,76.97
2023-01-09T18:05:33.563Z,76.91
2023-01-09T18:08:00.736Z,76.52
2023-01-09T18:10:27.870Z,77.28
2023-01-09T18:12:55.809Z,76.83
2023-01-09T18:15:24.602Z,76.17
2023-01-09T18:17:52.193Z,76.81
2023-01-09T18:20:19.454Z,76.86
2023-01-09T18:22:46.538Z,77.11
2023-01-09T18:25:13.377Z,76.82
2023-01-09T18:27:40.238Z,76.74
2023-01-09T18:30:07.605Z,76.79
2023-01-09T18:32:34.670Z,77.10
2023-01-09T18:35:01.649Z,76.79
2023-01-09T18:37:28.392Z,76.84
2023-01-09T18:39:55.145Z,76.76
2023-01-09T18:42:21.998Z,77.17
2023-01-09T18:44:48.837Z,76.98
2023-01-09T18:47:15.669Z,77.19
2023-01-09T18:49:42.746Z,77.40
2023-01-09T18:52:09.491Z,77.59
2023-01-09T18:54:38.325Z,77.09
2023-01-09T18:57:05.209Z,77.39
2023-01-09T18:59:32.119Z,77.39
2023-01-09T19:02:01.355Z,77.70
2023-01-09T19:04:29.111Z,77.94
2023-01-09T19:06:57.313Z,78.07
2023-01-09T19:09:24.399Z,78.27
2023-01-09T19:11:51.179Z,78.37
2023-01-09T19:14:18.125Z,78.31
2023-01-09T19:16:44.984Z,78.62
2023-01-09T19:19:11.838Z,78.90
2023-01-09T19:21:38.654Z,78.65
2023-01-09T19:24:05.732Z,78.34
2023-01-09T19:26:32.601Z,77.64
2023-01-09T19:29:00.985Z,77.12
2023-01-09T19:31:29.209Z,77.66
2023-01-09T19:33:57.510Z,77.97
2023-01-09T19:36:24.521Z,78.15
2023-01-09T19:38:59.195Z,78.03
2023-01-09T19:41:26.677Z,77.51
2023-01-09T19:43:53.873Z,77.95
2023-01-09T19:46:23.307Z,77.63
2023-01-09T19:48:51.230Z,77.55
2023-01-09T19:51:20.417Z,77.73
2023-01-09T19:53:53.605Z,77.22
2023-01-09T19:56:22.984Z,76.82
2023-01-09T19:58:52.313Z,77.65
2023-01-09T20:01:21.975Z,77.22
2023-01-09T20:03:49.319Z,77.61
2023-01-09T20:06:19.093Z,76.09
2023-01-09T20:08:50.289Z,76.92
2023-01-09T20:11:19.396Z,77.17
2023-01-09T20:13:46.213Z,76.65
2023-01-09T20:16:21.102Z,77.21
2023-01-09T20:18:48.041Z,76.44
2023-01-09T20:21:21.776Z,76.91
2023-01-09T20:23:51.381Z,77.46
2023-01-09T20:26:19.069Z,77.47
2023-01-09T20:28:46.917Z,77.84
2023-01-09T20:31:17.652Z,77.12
2023-01-09T20:33:44.787Z,75.50
2023-01-09T20:36:11.855Z,75.71
2023-01-09T20:38:40.457Z,75.68
2023-01-09T20:41:25.958Z,75.72
2023-01-09T20:44:01.007Z,75.16
2023-01-09T20:46:29.925Z,75.25
2023-01-09T20:48:58.683Z,75.40
2023-01-09T20:51:26.039Z,75.79
2023-01-09T20:53:56.096Z,74.72
2023-01-09T20:56:27.087Z,75.35
2023-01-09T20:58:54.128Z,74.16
2023-01-09T21:01:23.081Z,73.74
2023-01-09T21:03:53.492Z,74.26
2023-01-09T21:06:22.211Z,74.33
2023-01-09T21:08:50.986Z,75.48
2023-01-09T21:11:18.146Z,74.17
2023-01-09T21:13:44.805Z,74.10
2023-01-09T21:16:14.261Z,73.34
2023-01-09T21:18:41.666Z,74.18
2023-01-09T21:21:16.223Z,72.60
2023-01-09T21:23:47.554Z,73.10
2023-01-09T21:26:15.532Z,74.50
2023-01-09T21:28:49.347Z,74.22
2023-01-09T21:31:18.404Z,74.25
2023-01-09T21:33:45.464Z,74.66
2023-01-09T21:36:12.425Z,73.02
2023-01-09T21:38:39.177Z,74.02
2023-01-09T21:41:24.460Z,73.16
2023-01-09T21:44:09.960Z,72.26
2023-01-09T21:46:51.743Z,72.33
2023-01-09T21:49:20.810Z,72.77
2023-01-09T21:51:47.592Z,73.05
2023-01-09T21:54:14.607Z,73.38
2023-01-09T21:56:41.554Z,73.31
2023-01-09T21:59:08.510Z,72.77
2023-01-09T22:01:35.257Z,72.97
2023-01-09T22:04:01.952Z,73.28
2023-01-09T22:06:29.032Z,73.35
2023-01-09T22:08:57.781Z,72.06
2023-01-09T22:11:27.433Z,71.71
2023-01-09T22:13:55.472Z,72.66
2023-01-09T22:16:25.554Z,73.63
2023-01-09T22:18:57.740Z,72.70
2023-01-09T22:21:25.460Z,72.87
2023-01-09T22:23:52.181Z,72.40
2023-01-09T22:26:19.525Z,72.36
2023-01-09T22:28:46.668Z,72.81
2023-01-09T22:31:19.202Z,72.52
2023-01-09T22:33:53.115Z,72.61
2023-01-09T22:36:20.099Z,72.24
2023-01-09T22:38:47.293Z,73.06
2023-01-09T22:41:14.042Z,72.19
2023-01-09T22:43:40.769Z,72.65
2023-01-09T22:46:11.165Z,72.29
2023-01-09T22:48:38.838Z,71.87
2023-01-09T22:51:16.471Z,71.56
2023-01-09T22:53:43.397Z,70.85
2023-01-09T22:56:16.033Z,71.76
2023-01-09T22:58:43.040Z,71.32
2023-01-09T23:01:13.075Z,71.24
2023-01-09T23:03:40.294Z,71.51
2023-01-09T23:06:15.607Z,72.48
2023-01-09T23:08:42.704Z,71.79
2023-01-09T23:11:12.619Z,72.27
2023-01-09T23:13:39.718Z,71.67
2023-01-09T23:16:07.237Z,72.15
2023-01-09T23:18:36.960Z,71.95
2023-01-09T23:21:05.173Z,72.38
2023-01-09T23:23:32.562Z,71.83
2023-01-09T23:26:02.460Z,71.65
2023-01-09T23:28:32.271Z,71.81
2023-01-09T23:30:58.991Z,71.64
2023-01-09T23:33:25.600Z,72.18
2023-01-09T23:35:52.220Z,72.60
2023-01-09T23:38:18.969Z,73.51
2023-01-09T23:40:45.605Z,72.13
2023-01-09T23:43:13.961Z,72.72
2023-01-09T23:45:45.159Z,71.61
2023-01-09T23:48:15.587Z,71.55
2023-01-09T23:50:52.873Z,72.27
2023-01-09T23:53:20.691Z,72.12
2023-01-09T23:55:48.124Z,72.60
2023-01-09T23:58:14.849Z,72.08
